sensor_id;sensor_type;location;lat;lon;timestamp;pressure;altitude;pressure_sealevel;temperature;humidity
26719;BME280;14326;50.794;6.060;2023-05-10T00:00:33;98936.41;;;13.54;100.00
26719;BME280;14326;50.794;6.060;2023-05-10T00:03:16;98935.56;;;13.49;100.00
26719;BME280;14326;50.794;6.060;2023-05-10T00:05:45;98935.53;;;13.52;100.00
26719;BME280;14326;50.794;6.060;2023-05-10T00:08:29;98937.38;;;13.48;100.00
26719;BME280;14326;50.794;6.060;2023-05-10T00:11:01;98939.19;;;13.46;100.00
26719;BME280;14326;50.794;6.060;2023-05-10T00:13:28;98938.31;;;13.44;100.00
26719;BME280;14326;50.794;6.060;2023-05-10T00:16:17;98930.28;;;13.44;100.00
26719;BME280;14326;50.794;6.060;2023-05-10T00:19:13;98935.63;;;13.44;100.00
26719;BME280;14326;50.794;6.060;2023-05-10T00:21:53;98937.41;;;13.44;100.00
26719;BME280;14326;50.794;6.060;2023-05-10T00:24:20;98941.03;;;13.41;100.00
26719;BME280;14326;50.794;6.060;2023-05-10T00:26:47;98937.41;;;13.44;100.00
26719;BME280;14326;50.794;6.060;2023-05-10T00:29:13;98928.50;;;13.46;100.00
26719;BME280;14326;50.794;6.060;2023-05-10T00:31:41;98935.63;;;13.46;100.00
26719;BME280;14326;50.794;6.060;2023-05-10T00:34:29;98932.06;;;13.45;100.00
26719;BME280;14326;50.794;6.060;2023-05-10T00:37:20;98932.94;;;13.46;100.00
26719;BME280;14326;50.794;6.060;2023-05-10T00:40:16;98931.22;;;13.42;100.00
26719;BME280;14326;50.794;6.060;2023-05-10T00:42:55;98934.75;;;13.44;100.00
26719;BME280;14326;50.794;6.060;2023-05-10T00:45:22;98942.75;;;13.45;100.00
26719;BME280;14326;50.794;6.060;2023-05-10T00:47:50;98938.28;;;13.46;100.00
26719;BME280;14326;50.794;6.060;2023-05-10T00:50:42;98935.63;;;13.44;100.00
26719;BME280;14326;50.794;6.060;2023-05-10T00:53:23;98938.28;;;13.46;100.00
26719;BME280;14326;50.794;6.060;2023-05-10T00:55:59;98934.81;;;13.41;100.00
26719;BME280;14326;50.794;6.060;2023-05-10T00:58:56;98940.09;;;13.44;100.00
26719;BME280;14326;50.794;6.060;2023-05-10T01:01:48;98930.34;;;13.40;100.00
26719;BME280;14326;50.794;6.060;2023-05-10T01:04:45;98927.69;;;13.40;100.00
26719;BME280;14326;50.794;6.060;2023-05-10T01:07:26;98946.38;;;13.41;100.00
26719;BME280;14326;50.794;6.060;2023-05-10T01:09:59;98935.75;;;13.35;100.00
26719;BME280;14326;50.794;6.060;2023-05-10T01:12:41;98943.78;;;13.37;100.00
26719;BME280;14326;50.794;6.060;2023-05-10T01:15:10;98933.09;;;13.37;100.00
26719;BME280;14326;50.794;6.060;2023-05-10T01:17:38;98933.94;;;13.37;100.00
26719;BME280;14326;50.794;6.060;2023-05-10T01:20:09;98937.50;;;13.38;100.00
26719;BME280;14326;50.794;6.060;2023-05-10T01:22:54;98934.81;;;13.38;100.00
26719;BME280;14326;50.794;6.060;2023-05-10T01:25:39;98930.41;;;13.37;100.00
26719;BME280;14326;50.794;6.060;2023-05-10T01:28:42;98929.53;;;13.36;100.00
26719;BME280;14326;50.794;6.060;2023-05-10T01:31:33;98928.63;;;13.36;100.00
26719;BME280;14326;50.794;6.060;2023-05-10T01:34:09;98933.94;;;13.39;100.00
26719;BME280;14326;50.794;6.060;2023-05-10T01:36:44;98929.53;;;13.35;100.00
26719;BME280;14326;50.794;6.060;2023-05-10T01:39:16;98939.34;;;13.33;100.00
26719;BME280;14326;50.794;6.060;2023-05-10T01:41:48;98934.00;;;13.34;100.00
26719;BME280;14326;50.794;6.060;2023-05-10T01:44:19;98929.53;;;13.35;100.00
26719;BME280;14326;50.794;6.060;2023-05-10T01:46:55;98936.69;;;13.33;100.00
26719;BME280;14326;50.794;6.060;2023-05-10T01:49:28;98943.78;;;13.37;100.00
26719;BME280;14326;50.794;6.060;2023-05-10T01:52:00;98934.88;;;13.35;100.00
26719;BME280;14326;50.794;6.060;2023-05-10T01:54:32;98940.16;;;13.38;100.00
26719;BME280;14326;50.794;6.060;2023-05-10T01:57:02;98944.69;;;13.34;100.00
26719;BME280;14326;50.794;6.060;2023-05-10T01:59:33;98937.56;;;13.35;100.00
26719;BME280;14326;50.794;6.060;2023-05-10T02:02:05;98931.38;;;13.30;100.00
26719;BME280;14326;50.794;6.060;2023-05-10T02:04:35;98937.56;;;13.35;100.00
26719;BME280;14326;50.794;6.060;2023-05-10T02:07:03;98942.06;;;13.30;100.00
26719;BME280;14326;50.794;6.060;2023-05-10T02:09:32;98947.34;;;13.33;100.00
26719;BME280;14326;50.794;6.060;2023-05-10T02:12:01;98953.59;;;13.32;100.00
26719;BME280;14326;50.794;6.060;2023-05-10T02:14:30;98958.06;;;13.31;100.00
26719;BME280;14326;50.794;6.060;2023-05-10T02:17:19;98958.09;;;13.28;100.00
26719;BME280;14326;50.794;6.060;2023-05-10T02:20:27;98960.84;;;13.25;100.00
26719;BME280;14326;50.794;6.060;2023-05-10T02:23:23;98964.41;;;13.24;100.00
26719;BME280;14326;50.794;6.060;2023-05-10T02:26:05;98963.53;;;13.21;100.00
26719;BME280;14326;50.794;6.060;2023-05-10T02:28:44;98965.34;;;13.19;100.00
26719;BME280;14326;50.794;6.060;2023-05-10T02:31:28;98976.06;;;13.16;100.00
26719;BME280;14326;50.794;6.060;2023-05-10T02:34:10;98980.53;;;13.13;100.00
26719;BME280;14326;50.794;6.060;2023-05-10T02:36:39;98977.91;;;13.12;100.00
26719;BME280;14326;50.794;6.060;2023-05-10T02:39:24;98982.31;;;13.10;100.00
26719;BME280;14326;50.794;6.060;2023-05-10T02:42:19;98987.69;;;13.13;100.00
26719;BME280;14326;50.794;6.060;2023-05-10T02:45:25;98976.06;;;13.16;100.00
26719;BME280;14326;50.794;6.060;2023-05-10T02:48:36;98983.19;;;13.13;100.00
26719;BME280;14326;50.794;6.060;2023-05-10T02:51:15;98973.41;;;13.11;100.00
26719;BME280;14326;50.794;6.060;2023-05-10T02:53:46;98976.09;;;13.08;100.00
26719;BME280;14326;50.794;6.060;2023-05-10T02:56:15;98984.09;;;13.09;100.00
26719;BME280;14326;50.794;6.060;2023-05-10T02:58:46;98979.72;;;13.04;100.00
26719;BME280;14326;50.794;6.060;2023-05-10T03:01:13;98974.38;;;13.07;100.00
26719;BME280;14326;50.794;6.060;2023-05-10T03:03:39;98983.31;;;13.01;100.00
26719;BME280;14326;50.794;6.060;2023-05-10T03:06:06;98979.84;;;12.93;100.00
26719;BME280;14326;50.794;6.060;2023-05-10T03:08:33;98979.84;;;12.93;100.00
26719;BME280;14326;50.794;6.060;2023-05-10T03:11:21;98979.84;;;12.93;100.00
26719;BME280;14326;50.794;6.060;2023-05-10T03:13:53;98974.56;;;12.87;100.00
26719;BME280;14326;50.794;6.060;2023-05-10T03:16:27;98979.84;;;12.93;100.00
26719;BME280;14326;50.794;6.060;2023-05-10T03:19:10;98967.44;;;12.89;100.00
26719;BME280;14326;50.794;6.060;2023-05-10T03:21:41;98975.44;;;12.89;100.00
26719;BME280;14326;50.794;6.060;2023-05-10T03:24:12;98974.56;;;12.87;100.00
26719;BME280;14326;50.794;6.060;2023-05-10T03:26:43;98971.06;;;12.82;100.00
26719;BME280;14326;50.794;6.060;2023-05-10T03:29:10;98973.75;;;12.81;100.00
26719;BME280;14326;50.794;6.060;2023-05-10T03:31:38;98980.91;;;12.77;100.00
26719;BME280;14326;50.794;6.060;2023-05-10T03:34:04;98984.53;;;12.71;100.00
26719;BME280;14326;50.794;6.060;2023-05-10T03:36:31;98984.47;;;12.75;100.00
26719;BME280;14326;50.794;6.060;2023-05-10T03:38:58;98976.47;;;12.78;100.00
26719;BME280;14326;50.794;6.060;2023-05-10T03:41:35;98988.03;;;12.75;100.00
26719;BME280;14326;50.794;6.060;2023-05-10T03:44:06;98985.38;;;12.75;100.00
26719;BME280;14326;50.794;6.060;2023-05-10T03:46:33;98985.34;;;12.78;100.00
26719;BME280;14326;50.794;6.060;2023-05-10T03:48:59;98987.16;;;12.73;100.00
26719;BME280;14326;50.794;6.060;2023-05-10T03:51:26;98988.03;;;12.75;100.00
26719;BME280;14326;50.794;6.060;2023-05-10T03:53:53;98989.75;;;12.79;100.00
26719;BME280;14326;50.794;6.060;2023-05-10T03:56:41;98988.88;;;12.80;100.00
26719;BME280;14326;50.794;6.060;2023-05-10T03:59:13;98986.25;;;12.76;100.00
26719;BME280;14326;50.794;6.060;2023-05-10T04:01:39;98995.16;;;12.76;100.00
26719;BME280;14326;50.794;6.060;2023-05-10T04:04:06;98994.25;;;12.74;100.00
26719;BME280;14326;50.794;6.060;2023-05-10T04:06:32;98996.03;;;12.78;100.00
26719;BME280;14326;50.794;6.060;2023-05-10T04:08:59;98994.25;;;12.76;100.00
26719;BME280;14326;50.794;6.060;2023-05-10T04:11:29;98997.78;;;12.79;100.00
26719;BME280;14326;50.794;6.060;2023-05-10T04:13:56;98998.66;;;12.80;100.00
26719;BME280;14326;50.794;6.060;2023-05-10T04:16:24;98998.66;;;12.80;100.00
26719;BME280;14326;50.794;6.060;2023-05-10T04:18:50;98994.22;;;12.80;100.00
26719;BME280;14326;50.794;6.060;2023-05-10T04:21:18;98998.66;;;12.80;100.00
26719;BME280;14326;50.794;6.060;2023-05-10T04:23:45;98985.34;;;12.78;100.00
26719;BME280;14326;50.794;6.060;2023-05-10T04:26:20;99003.97;;;12.83;100.00
26719;BME280;14326;50.794;6.060;2023-05-10T04:29:05;98994.19;;;12.82;100.00
26719;BME280;14326;50.794;6.060;2023-05-10T04:31:33;99000.41;;;12.84;100.00
26719;BME280;14326;50.794;6.060;2023-05-10T04:34:01;98993.25;;;12.84;100.00
26719;BME280;14326;50.794;6.060;2023-05-10T04:36:28;99004.81;;;12.86;100.00
26719;BME280;14326;50.794;6.060;2023-05-10T04:38:54;99011.94;;;12.84;100.00
26719;BME280;14326;50.794;6.060;2023-05-10T04:41:21;99003.09;;;12.81;100.00
26719;BME280;14326;50.794;6.060;2023-05-10T04:43:47;99002.19;;;12.82;100.00
26719;BME280;14326;50.794;6.060;2023-05-10T04:46:15;99004.00;;;12.81;100.00
26719;BME280;14326;50.794;6.060;2023-05-10T04:48:43;99004.88;;;12.82;100.00
26719;BME280;14326;50.794;6.060;2023-05-10T04:51:09;99013.72;;;12.85;100.00
26719;BME280;14326;50.794;6.060;2023-05-10T04:53:36;99009.28;;;12.84;100.00
26719;BME280;14326;50.794;6.060;2023-05-10T04:56:03;99009.31;;;12.83;100.00
26719;BME280;14326;50.794;6.060;2023-05-10T04:58:30;99012.81;;;12.88;100.00
26719;BME280;14326;50.794;6.060;2023-05-10T05:00:56;99014.59;;;12.87;100.00
26719;BME280;14326;50.794;6.060;2023-05-10T05:03:23;99011.06;;;12.85;100.00
26719;BME280;14326;50.794;6.060;2023-05-10T05:05:51;99003.03;;;12.85;100.00
26719;BME280;14326;50.794;6.060;2023-05-10T05:08:19;99003.03;;;12.85;100.00
26719;BME280;14326;50.794;6.060;2023-05-10T05:10:49;99011.94;;;12.87;100.00
26719;BME280;14326;50.794;6.060;2023-05-10T05:13:18;99010.16;;;12.86;100.00
26719;BME280;14326;50.794;6.060;2023-05-10T05:15:55;99019.06;;;12.85;100.00
26719;BME280;14326;50.794;6.060;2023-05-10T05:18:22;99025.28;;;12.86;100.00
26719;BME280;14326;50.794;6.060;2023-05-10T05:20:50;99025.25;;;12.90;100.00
26719;BME280;14326;50.794;6.060;2023-05-10T05:23:17;99027.00;;;12.91;100.00
26719;BME280;14326;50.794;6.060;2023-05-10T05:25:45;99031.50;;;12.89;100.00
26719;BME280;14326;50.794;6.060;2023-05-10T05:28:12;99030.56;;;12.93;100.00
26719;BME280;14326;50.794;6.060;2023-05-10T05:30:39;99027.91;;;12.93;100.00
26719;BME280;14326;50.794;6.060;2023-05-10T05:33:06;99033.19;;;12.96;100.00
26719;BME280;14326;50.794;6.060;2023-05-10T05:35:33;99028.78;;;12.95;100.00
26719;BME280;14326;50.794;6.060;2023-05-10T05:38:01;99028.78;;;12.95;100.00
26719;BME280;14326;50.794;6.060;2023-05-10T05:40:27;99042.13;;;12.92;100.00
26719;BME280;14326;50.794;6.060;2023-05-10T05:42:54;99036.78;;;12.92;100.00
26719;BME280;14326;50.794;6.060;2023-05-10T05:45:20;99035.84;;;12.96;100.00
26719;BME280;14326;50.794;6.060;2023-05-10T05:47:51;99039.41;;;12.98;100.00
26719;BME280;14326;50.794;6.060;2023-05-10T05:50:28;99038.47;;;13.02;100.00
26719;BME280;14326;50.794;6.060;2023-05-10T05:52:54;99038.44;;;13.05;100.00
26719;BME280;14326;50.794;6.060;2023-05-10T05:55:23;99041.94;;;13.10;100.00
26719;BME280;14326;50.794;6.060;2023-05-10T05:57:51;99047.25;;;13.17;100.00
26719;BME280;14326;50.794;6.060;2023-05-10T06:00:17;99050.78;;;13.20;100.00
26719;BME280;14326;50.794;6.060;2023-05-10T06:02:44;99055.16;;;13.27;100.00
26719;BME280;14326;50.794;6.060;2023-05-10T06:05:11;99056.03;;;13.31;100.00
26719;BME280;14326;50.794;6.060;2023-05-10T06:07:39;99055.09;;;13.33;100.00
26719;BME280;14326;50.794;6.060;2023-05-10T06:13:06;99058.66;;;13.34;100.00
26719;BME280;14326;50.794;6.060;2023-05-10T06:15:33;99060.41;;;13.35;100.00
26719;BME280;14326;50.794;6.060;2023-05-10T06:17:59;99067.56;;;13.34;100.00
26719;BME280;14326;50.794;6.060;2023-05-10T06:20:26;99067.53;;;13.36;100.00
26719;BME280;14326;50.794;6.060;2023-05-10T06:22:53;99068.38;;;13.41;100.00
26719;BME280;14326;50.794;6.060;2023-05-10T06:25:19;99071.94;;;13.40;100.00
26719;BME280;14326;50.794;6.060;2023-05-10T06:27:46;99071.94;;;13.38;100.00
26719;BME280;14326;50.794;6.060;2023-05-10T06:30:14;99071.88;;;13.46;100.00
26719;BME280;14326;50.794;6.060;2023-05-10T06:33:07;99079.88;;;13.46;100.00
26719;BME280;14326;50.794;6.060;2023-05-10T06:35:42;99079.91;;;13.44;100.00
26719;BME280;14326;50.794;6.060;2023-05-10T06:38:09;99087.03;;;13.44;100.00
26719;BME280;14326;50.794;6.060;2023-05-10T06:40:36;99085.28;;;13.41;100.00
26719;BME280;14326;50.794;6.060;2023-05-10T06:43:03;99089.75;;;13.39;100.00
26719;BME280;14326;50.794;6.060;2023-05-10T06:45:31;99093.34;;;13.37;100.00
26719;BME280;14326;50.794;6.060;2023-05-10T06:47:57;99092.47;;;13.36;100.00
26719;BME280;14326;50.794;6.060;2023-05-10T06:50:24;99096.09;;;13.31;100.00
26719;BME280;14326;50.794;6.060;2023-05-10T06:52:50;99100.56;;;13.27;100.00
26719;BME280;14326;50.794;6.060;2023-05-10T06:55:17;99104.16;;;13.23;100.00
26719;BME280;14326;50.794;6.060;2023-05-10T06:57:58;99102.41;;;13.21;100.00
26719;BME280;14326;50.794;6.060;2023-05-10T07:00:24;99116.66;;;13.20;100.00
26719;BME280;14326;50.794;6.060;2023-05-10T07:02:53;99122.03;;;13.18;100.00
26719;BME280;14326;50.794;6.060;2023-05-10T07:05:20;99121.22;;;13.05;100.00
26719;BME280;14326;50.794;6.060;2023-05-10T07:07:47;99124.78;;;13.04;100.00
26719;BME280;14326;50.794;6.060;2023-05-10T07:10:14;99126.56;;;13.04;100.00
26719;BME280;14326;50.794;6.060;2023-05-10T07:12:40;99130.16;;;13.00;100.00
26719;BME280;14326;50.794;6.060;2023-05-10T07:15:08;99131.97;;;12.96;100.00
26719;BME280;14326;50.794;6.060;2023-05-10T07:17:35;99133.72;;;12.97;100.00
26719;BME280;14326;50.794;6.060;2023-05-10T07:20:04;99132.00;;;12.93;100.00
26719;BME280;14326;50.794;6.060;2023-05-10T07:22:31;99138.22;;;12.92;100.00
26719;BME280;14326;50.794;6.060;2023-05-10T07:24:57;99143.56;;;12.91;100.00
26719;BME280;14326;50.794;6.060;2023-05-10T07:27:25;99139.13;;;12.91;100.00
26719;BME280;14326;50.794;6.060;2023-05-10T07:29:51;99141.78;;;12.94;100.00
26719;BME280;14326;50.794;6.060;2023-05-10T07:32:18;99145.34;;;12.93;100.00
26719;BME280;14326;50.794;6.060;2023-05-10T07:34:45;99146.28;;;12.88;100.00
26719;BME280;14326;50.794;6.060;2023-05-10T07:37:12;99142.72;;;12.89;100.00
26719;BME280;14326;50.794;6.060;2023-05-10T07:39:39;99135.59;;;12.86;100.00
26719;BME280;14326;50.794;6.060;2023-05-10T07:42:06;99152.50;;;12.88;100.00
26719;BME280;14326;50.794;6.060;2023-05-10T07:44:32;99148.03;;;12.90;100.00
26719;BME280;14326;50.794;6.060;2023-05-10T07:46:59;99148.00;;;12.93;100.00
26719;BME280;14326;50.794;6.060;2023-05-10T07:49:25;99151.56;;;12.94;100.00
26719;BME280;14326;50.794;6.060;2023-05-10T07:51:52;99150.69;;;12.95;100.00
26719;BME280;14326;50.794;6.060;2023-05-10T07:54:20;99159.53;;;12.98;100.00
26719;BME280;14326;50.794;6.060;2023-05-10T07:56:46;99160.44;;;12.99;100.00
26719;BME280;14326;50.794;6.060;2023-05-10T07:59:15;99159.50;;;13.03;100.00
26719;BME280;14326;50.794;6.060;2023-05-10T08:01:42;99157.75;;;12.99;100.00
26719;BME280;14326;50.794;6.060;2023-05-10T08:04:09;99161.31;;;12.98;100.00
26719;BME280;14326;50.794;6.060;2023-05-10T08:06:36;99161.31;;;12.96;100.00
26719;BME280;14326;50.794;6.060;2023-05-10T08:09:03;99160.47;;;12.96;100.00
26719;BME280;14326;50.794;6.060;2023-05-10T08:11:31;99176.44;;;12.99;100.00
26719;BME280;14326;50.794;6.060;2023-05-10T08:13:58;99171.94;;;13.02;100.00
26719;BME280;14326;50.794;6.060;2023-05-10T08:16:24;99178.22;;;12.98;100.00
26719;BME280;14326;50.794;6.060;2023-05-10T08:18:51;99182.69;;;12.98;100.00
26719;BME280;14326;50.794;6.060;2023-05-10T08:21:20;99181.78;;;12.99;100.00
26719;BME280;14326;50.794;6.060;2023-05-10T08:23:47;99188.84;;;13.04;100.00
26719;BME280;14326;50.794;6.060;2023-05-10T08:26:14;99186.22;;;13.01;100.00
26719;BME280;14326;50.794;6.060;2023-05-10T08:28:42;99192.44;;;13.02;100.00
26719;BME280;14326;50.794;6.060;2023-05-10T08:31:08;99191.53;;;13.04;100.00
26719;BME280;14326;50.794;6.060;2023-05-10T08:33:35;99180.84;;;13.07;100.00
26719;BME280;14326;50.794;6.060;2023-05-10T08:36:02;99194.19;;;13.12;100.00
26719;BME280;14326;50.794;6.060;2023-05-10T08:38:28;99199.53;;;13.06;100.00
26719;BME280;14326;50.794;6.060;2023-05-10T08:40:55;99206.66;;;13.04;100.00
26719;BME280;14326;50.794;6.060;2023-05-10T08:43:26;99205.81;;;12.97;100.00
26719;BME280;14326;50.794;6.060;2023-05-10T08:45:55;99205.84;;;12.94;100.00
26719;BME280;14326;50.794;6.060;2023-05-10T08:48:23;99215.69;;;12.89;100.00
26719;BME280;14326;50.794;6.060;2023-05-10T08:50:53;99220.09;;;12.90;100.00
26719;BME280;14326;50.794;6.060;2023-05-10T08:53:21;99221.88;;;12.96;100.00
26719;BME280;14326;50.794;6.060;2023-05-10T08:55:50;99223.66;;;12.92;100.00
26719;BME280;14326;50.794;6.060;2023-05-10T08:58:17;99219.19;;;12.96;100.00
26719;BME280;14326;50.794;6.060;2023-05-10T09:00:45;99215.63;;;12.95;100.00
26719;BME280;14326;50.794;6.060;2023-05-10T09:03:13;99223.59;;;13.01;100.00
26719;BME280;14326;50.794;6.060;2023-05-10T09:05:40;99221.78;;;13.03;100.00
26719;BME280;14326;50.794;6.060;2023-05-10T09:08:08;99231.56;;;13.07;100.00
26719;BME280;14326;50.794;6.060;2023-05-10T09:10:35;99230.63;;;13.15;100.00
26719;BME280;14326;50.794;6.060;2023-05-10T09:13:03;99229.72;;;13.20;100.00
26719;BME280;14326;50.794;6.060;2023-05-10T09:15:30;99222.47;;;13.34;100.00
26719;BME280;14326;50.794;6.060;2023-05-10T09:17:57;99229.50;;;13.47;100.00
26719;BME280;14326;50.794;6.060;2023-05-10T09:20:28;99232.06;;;13.55;100.00
26719;BME280;14326;50.794;6.060;2023-05-10T09:22:56;99234.69;;;13.61;100.00
26719;BME280;14326;50.794;6.060;2023-05-10T09:25:22;99237.28;;;13.72;100.00
26719;BME280;14326;50.794;6.060;2023-05-10T09:27:49;99236.31;;;13.79;100.00
26719;BME280;14326;50.794;6.060;2023-05-10T09:30:22;99240.63;;;13.93;100.00
26719;BME280;14326;50.794;6.060;2023-05-10T09:32:49;99247.72;;;13.96;100.00
26719;BME280;14326;50.794;6.060;2023-05-10T09:35:18;99244.97;;;14.04;100.00
26719;BME280;14326;50.794;6.060;2023-05-10T09:37:48;99238.66;;;14.11;100.00
26719;BME280;14326;50.794;6.060;2023-05-10T09:40:16;99242.22;;;14.13;100.00
26719;BME280;14326;50.794;6.060;2023-05-10T09:42:51;99244.00;;;14.12;100.00
26719;BME280;14326;50.794;6.060;2023-05-10T09:45:18;99245.00;;;14.01;100.00
26719;BME280;14326;50.794;6.060;2023-05-10T09:47:45;99249.56;;;13.91;100.00
26719;BME280;14326;50.794;6.060;2023-05-10T09:50:12;99253.16;;;13.88;100.00
26719;BME280;14326;50.794;6.060;2023-05-10T09:52:48;99246.88;;;13.94;100.00
26719;BME280;14326;50.794;6.060;2023-05-10T09:55:17;99249.53;;;13.96;100.00
26719;BME280;14326;50.794;6.060;2023-05-10T09:57:43;99249.47;;;14.02;100.00
26719;BME280;14326;50.794;6.060;2023-05-10T10:00:17;99250.31;;;14.05;100.00
26719;BME280;14326;50.794;6.060;2023-05-10T10:02:45;99249.34;;;14.12;100.00
26719;BME280;14326;50.794;6.060;2023-05-10T10:05:13;99253.66;;;14.25;100.00
26719;BME280;14326;50.794;6.060;2023-05-10T10:07:40;99254.56;;;14.24;100.00
26719;BME280;14326;50.794;6.060;2023-05-10T10:10:12;99248.25;;;14.28;100.00
26719;BME280;14326;50.794;6.060;2023-05-10T10:12:40;99255.47;;;14.22;100.00
26719;BME280;14326;50.794;6.060;2023-05-10T10:15:21;99258.06;;;14.31;100.00
26719;BME280;14326;50.794;6.060;2023-05-10T10:17:49;99252.56;;;14.43;100.00
26719;BME280;14326;50.794;6.060;2023-05-10T10:20:22;99249.78;;;14.52;100.00
26719;BME280;14326;50.794;6.060;2023-05-10T10:23:05;99250.47;;;14.68;100.00
26719;BME280;14326;50.794;6.060;2023-05-10T10:25:41;99242.25;;;14.80;100.00
26719;BME280;14326;50.794;6.060;2023-05-10T10:28:19;99244.84;;;14.88;100.00
26719;BME280;14326;50.794;6.060;2023-05-10T10:30:50;99238.44;;;14.98;100.00
26719;BME280;14326;50.794;6.060;2023-05-10T10:33:33;99245.63;;;14.94;100.00
26719;BME280;14326;50.794;6.060;2023-05-10T10:36:22;99246.66;;;14.86;100.00
26719;BME280;14326;50.794;6.060;2023-05-10T10:38:58;99248.50;;;14.79;100.00
26719;BME280;14326;50.794;6.060;2023-05-10T10:41:34;99254.81;;;14.77;100.00
26719;BME280;14326;50.794;6.060;2023-05-10T10:47:06;99251.34;;;14.68;100.00
26719;BME280;14326;50.794;6.060;2023-05-10T10:49:43;99252.16;;;14.73;100.00
26719;BME280;14326;50.794;6.060;2023-05-10T10:52:25;99240.47;;;14.82;100.00
26719;BME280;14326;50.794;6.060;2023-05-10T10:54:59;99244.81;;;14.89;100.00
26719;BME280;14326;50.794;6.060;2023-05-10T10:57:35;99247.38;;;14.97;100.00
26719;BME280;14326;50.794;6.060;2023-05-10T11:00:19;99245.41;;;15.08;100.00
26719;BME280;14326;50.794;6.060;2023-05-10T11:02:46;99248.84;;;15.19;100.00
26719;BME280;14326;50.794;6.060;2023-05-10T11:05:44;99253.25;;;15.23;100.00
26719;BME280;14326;50.794;6.060;2023-05-10T11:08:16;99255.91;;;15.25;100.00
26719;BME280;14326;50.794;6.060;2023-05-10T11:10:51;99261.19;;;15.28;100.00
26719;BME280;14326;50.794;6.060;2023-05-10T11:13:28;99259.41;;;15.30;100.00
26719;BME280;14326;50.794;6.060;2023-05-10T11:15:56;99258.53;;;15.28;100.00
26719;BME280;14326;50.794;6.060;2023-05-10T11:18:25;99257.53;;;15.35;100.00
26719;BME280;14326;50.794;6.060;2023-05-10T11:20:54;99256.69;;;15.31;100.00
26719;BME280;14326;50.794;6.060;2023-05-10T11:23:21;99262.09;;;15.28;100.00
26719;BME280;14326;50.794;6.060;2023-05-10T11:25:49;99271.13;;;15.21;100.00
26719;BME280;14326;50.794;6.060;2023-05-10T11:28:17;99257.78;;;15.20;100.00
26719;BME280;14326;50.794;6.060;2023-05-10T11:30:46;99259.66;;;15.11;100.00
26719;BME280;14326;50.794;6.060;2023-05-10T11:33:17;99272.97;;;15.18;100.00
26719;BME280;14326;50.794;6.060;2023-05-10T11:35:44;99267.53;;;15.22;100.00
26719;BME280;14326;50.794;6.060;2023-05-10T11:38:12;99268.25;;;15.33;100.00
26719;BME280;14326;50.794;6.060;2023-05-10T11:40:40;99268.69;;;15.63;100.00
26719;BME280;14326;50.794;6.060;2023-05-10T11:43:08;99264.59;;;15.94;100.00
26719;BME280;14326;50.794;6.060;2023-05-10T11:45:42;99261.69;;;16.51;100.00
26719;BME280;14326;50.794;6.060;2023-05-10T11:48:10;99261.47;;;16.63;100.00
26719;BME280;14326;50.794;6.060;2023-05-10T11:50:37;99266.84;;;16.63;98.58
26719;BME280;14326;50.794;6.060;2023-05-10T11:53:03;99270.50;;;16.57;96.89
26719;BME280;14326;50.794;6.060;2023-05-10T11:55:33;99272.63;;;16.42;99.64
26719;BME280;14326;50.794;6.060;2023-05-10T11:58:01;99267.25;;;16.42;98.65
26719;BME280;14326;50.794;6.060;2023-05-10T12:00:28;99269.97;;;16.40;98.21
26719;BME280;14326;50.794;6.060;2023-05-10T12:02:56;99285.94;;;16.46;99.52
26719;BME280;14326;50.794;6.060;2023-05-10T12:05:24;99274.44;;;16.39;95.33
26719;BME280;14326;50.794;6.060;2023-05-10T12:07:51;99283.50;;;16.32;96.18
26719;BME280;14326;50.794;6.060;2023-05-10T12:10:25;99278.34;;;16.23;94.88
26719;BME280;14326;50.794;6.060;2023-05-10T12:12:52;99273.19;;;16.11;94.04
26719;BME280;14326;50.794;6.060;2023-05-10T12:15:24;99283.94;;;16.11;95.64
26719;BME280;14326;50.794;6.060;2023-05-10T12:17:50;99283.81;;;16.17;96.92
26719;BME280;14326;50.794;6.060;2023-05-10T12:20:19;99285.63;;;16.15;94.59
26719;BME280;14326;50.794;6.060;2023-05-10T12:22:50;99280.06;;;16.26;96.65
26719;BME280;14326;50.794;6.060;2023-05-10T12:25:17;99283.59;;;16.29;97.66
26719;BME280;14326;50.794;6.060;2023-05-10T12:27:54;99283.63;;;16.26;97.88
26719;BME280;14326;50.794;6.060;2023-05-10T12:30:22;99284.47;;;16.31;94.83
26719;BME280;14326;50.794;6.060;2023-05-10T12:32:49;99279.34;;;16.18;97.06
26719;BME280;14326;50.794;6.060;2023-05-10T12:35:19;99285.72;;;16.12;96.73
26719;BME280;14326;50.794;6.060;2023-05-10T12:37:48;99292.00;;;16.11;95.18
26719;BME280;14326;50.794;6.060;2023-05-10T12:40:15;99284.63;;;16.21;95.11
26719;BME280;14326;50.794;6.060;2023-05-10T12:42:41;99287.19;;;16.28;95.60
26719;BME280;14326;50.794;6.060;2023-05-10T12:45:10;99291.69;;;16.26;96.62
26719;BME280;14326;50.794;6.060;2023-05-10T12:47:37;99295.09;;;16.36;95.54
26719;BME280;14326;50.794;6.060;2023-05-10T12:50:05;99285.19;;;16.39;93.83
26719;BME280;14326;50.794;6.060;2023-05-10T12:52:32;99297.59;;;16.45;95.05
26719;BME280;14326;50.794;6.060;2023-05-10T12:55:00;99297.63;;;16.44;93.09
26719;BME280;14326;50.794;6.060;2023-05-10T12:57:28;99297.50;;;16.50;93.22
26719;BME280;14326;50.794;6.060;2023-05-10T12:59:55;99297.38;;;16.56;91.11
26719;BME280;14326;50.794;6.060;2023-05-10T13:02:30;99307.19;;;16.57;91.39
26719;BME280;14326;50.794;6.060;2023-05-10T13:04:56;99302.00;;;16.49;91.59
26719;BME280;14326;50.794;6.060;2023-05-10T13:07:33;99303.81;;;16.49;92.26
26719;BME280;14326;50.794;6.060;2023-05-10T13:10:05;99299.25;;;16.51;94.55
26719;BME280;14326;50.794;6.060;2023-05-10T13:12:34;99302.97;;;16.45;93.89
26719;BME280;14326;50.794;6.060;2023-05-10T13:15:02;99303.81;;;16.47;96.72
26719;BME280;14326;50.794;6.060;2023-05-10T13:17:29;99310.00;;;16.51;96.37